sensor_id;sensor_type;location;lat;lon;timestamp;pressure;altitude;pressure_sealevel;temperature;humidity
13015;BME280;6573;57.696;11.950;2023-04-27T00:00:45;100820.13;;;9.93;100.00
13015;BME280;6573;57.696;11.950;2023-04-27T00:03:13;100826.25;;;9.92;100.00
13015;BME280;6573;57.696;11.950;2023-04-27T00:05:42;100819.25;;;10.23;100.00
13015;BME280;6573;57.696;11.950;2023-04-27T00:08:10;100818.34;;;10.07;100.00
13015;BME280;6573;57.696;11.950;2023-04-27T00:10:40;100825.38;;;10.20;100.00
13015;BME280;6573;57.696;11.950;2023-04-27T00:13:09;100828.00;;;10.17;100.00
13015;BME280;6573;57.696;11.950;2023-04-27T00:15:37;100809.63;;;9.60;100.00
13015;BME280;6573;57.696;11.950;2023-04-27T00:18:05;100835.88;;;10.02;100.00
13015;BME280;6573;57.696;11.950;2023-04-27T00:20:33;100832.38;;;9.73;100.00
13015;BME280;6573;57.696;11.950;2023-04-27T00:23:02;100818.34;;;9.95;100.00
13015;BME280;6573;57.696;11.950;2023-04-27T00:25:30;100844.69;;;10.19;100.00
13015;BME280;6573;57.696;11.950;2023-04-27T00:27:59;100834.13;;;9.98;100.00
13015;BME280;6573;57.696;11.950;2023-04-27T00:30:28;100844.63;;;9.83;100.00
13015;BME280;6573;57.696;11.950;2023-04-27T00:32:56;100820.13;;;9.84;100.00
13015;BME280;6573;57.696;11.950;2023-04-27T00:35:24;100842.91;;;10.09;100.00
13015;BME280;6573;57.696;11.950;2023-04-27T00:37:53;100830.63;;;9.81;100.00
13015;BME280;6573;57.696;11.950;2023-04-27T00:40:21;100837.59;;;9.70;100.00
13015;BME280;6573;57.696;11.950;2023-04-27T00:42:49;100843.78;;;9.67;100.00
13015;BME280;6573;57.696;11.950;2023-04-27T00:45:19;100833.25;;;9.83;100.00
13015;BME280;6573;57.696;11.950;2023-04-27T00:47:48;100848.13;;;9.76;100.00
13015;BME280;6573;57.696;11.950;2023-04-27T00:50:19;100844.63;;;9.80;100.00
13015;BME280;6573;57.696;11.950;2023-04-27T00:52:52;100850.78;;;9.90;100.00
13015;BME280;6573;57.696;11.950;2023-04-27T00:55:21;100849.00;;;9.78;100.00
13015;BME280;6573;57.696;11.950;2023-04-27T00:57:49;100837.63;;;9.74;100.00
13015;BME280;6573;57.696;11.950;2023-04-27T01:00:19;100848.13;;;9.70;100.00
13015;BME280;6573;57.696;11.950;2023-04-27T01:02:48;100838.50;;;9.61;100.00
13015;BME280;6573;57.696;11.950;2023-04-27T01:05:17;100842.03;;;9.77;100.00
13015;BME280;6573;57.696;11.950;2023-04-27T01:07:46;100847.25;;;9.80;100.00
13015;BME280;6573;57.696;11.950;2023-04-27T01:10:14;100843.75;;;9.61;100.00
13015;BME280;6573;57.696;11.950;2023-04-27T01:12:42;100848.97;;;9.55;100.00
13015;BME280;6573;57.696;11.950;2023-04-27T01:15:10;100842.81;;;9.46;100.00
13015;BME280;6573;57.696;11.950;2023-04-27T01:17:40;100848.06;;;9.37;100.00
13015;BME280;6573;57.696;11.950;2023-04-27T01:20:10;100835.84;;;9.58;100.00
13015;BME280;6573;57.696;11.950;2023-04-27T01:22:38;100841.13;;;9.93;100.00
13015;BME280;6573;57.696;11.950;2023-04-27T01:25:09;100850.78;;;9.90;100.00
13015;BME280;6573;57.696;11.950;2023-04-27T01:27:38;100840.25;;;9.85;100.00
13015;BME280;6573;57.696;11.950;2023-04-27T01:30:07;100821.81;;;9.37;100.00
13015;BME280;6573;57.696;11.950;2023-04-27T01:32:36;100847.25;;;9.62;100.00
13015;BME280;6573;57.696;11.950;2023-04-27T01:35:04;100848.13;;;9.61;100.00
13015;BME280;6573;57.696;11.950;2023-04-27T01:37:33;100839.41;;;9.77;100.00
13015;BME280;6573;57.696;11.950;2023-04-27T01:40:02;100840.22;;;9.70;100.00
13015;BME280;6573;57.696;11.950;2023-04-27T01:42:34;100832.34;;;9.61;100.00
13015;BME280;6573;57.696;11.950;2023-04-27T01:45:02;100851.66;;;9.81;100.00
13015;BME280;6573;57.696;11.950;2023-04-27T01:47:31;100846.38;;;9.81;100.00
13015;BME280;6573;57.696;11.950;2023-04-27T01:49:59;100839.38;;;9.62;100.00
13015;BME280;6573;57.696;11.950;2023-04-27T01:52:27;100853.34;;;9.52;100.00
13015;BME280;6573;57.696;11.950;2023-04-27T01:54:55;100851.63;;;9.63;100.00
13015;BME280;6573;57.696;11.950;2023-04-27T01:57:24;100844.63;;;9.68;100.00
13015;BME280;6573;57.696;11.950;2023-04-27T01:59:53;100848.13;;;9.70;100.00
13015;BME280;6573;57.696;11.950;2023-04-27T02:02:22;100807.81;;;9.41;100.00
13015;BME280;6573;57.696;11.950;2023-04-27T02:04:51;100842.88;;;9.76;100.00
13015;BME280;6573;57.696;11.950;2023-04-27T02:07:19;100842.00;;;9.71;100.00
13015;BME280;6573;57.696;11.950;2023-04-27T02:09:48;100841.13;;;9.69;100.00
13015;BME280;6573;57.696;11.950;2023-04-27T02:12:16;100828.84;;;9.56;100.00
13015;BME280;6573;57.696;11.950;2023-04-27T02:14:44;100835.88;;;9.78;100.00
13015;BME280;6573;57.696;11.950;2023-04-27T02:17:14;100842.88;;;9.71;100.00
13015;BME280;6573;57.696;11.950;2023-04-27T02:19:42;100832.41;;;9.94;100.00
13015;BME280;6573;57.696;11.950;2023-04-27T02:22:11;100841.16;;;9.99;100.00
13015;BME280;6573;57.696;11.950;2023-04-27T02:24:39;100842.03;;;9.85;100.00
13015;BME280;6573;57.696;11.950;2023-04-27T02:27:07;100836.78;;;9.89;100.00
13015;BME280;6573;57.696;11.950;2023-04-27T02:29:36;100839.38;;;9.71;100.00
13015;BME280;6573;57.696;11.950;2023-04-27T02:32:05;100838.47;;;9.49;100.00
13015;BME280;6573;57.696;11.950;2023-04-27T02:34:35;100851.63;;;9.60;100.00
13015;BME280;6573;57.696;11.950;2023-04-27T02:37:03;100841.09;;;9.51;100.00
13015;BME280;6573;57.696;11.950;2023-04-27T02:39:31;100848.09;;;9.58;100.00
13015;BME280;6573;57.696;11.950;2023-04-27T02:41:59;100847.25;;;9.62;100.00
13015;BME280;6573;57.696;11.950;2023-04-27T02:44:28;100834.13;;;9.71;100.00
13015;BME280;6573;57.696;11.950;2023-04-27T02:46:58;100851.63;;;9.69;100.00
13015;BME280;6573;57.696;11.950;2023-04-27T02:49:26;100844.63;;;9.63;100.00
13015;BME280;6573;57.696;11.950;2023-04-27T02:51:57;100841.13;;;9.78;100.00
13015;BME280;6573;57.696;11.950;2023-04-27T02:54:25;100840.22;;;9.61;100.00
13015;BME280;6573;57.696;11.950;2023-04-27T02:56:53;100812.22;;;9.54;100.00
13015;BME280;6573;57.696;11.950;2023-04-27T02:59:22;100832.38;;;9.67;100.00
13015;BME280;6573;57.696;11.950;2023-04-27T03:01:50;100844.66;;;9.89;100.00
13015;BME280;6573;57.696;11.950;2023-04-27T03:04:18;100848.13;;;9.64;100.00
13015;BME280;6573;57.696;11.950;2023-04-27T03:06:47;100827.13;;;9.64;100.00
13015;BME280;6573;57.696;11.950;2023-04-27T03:09:17;100848.16;;;9.91;100.00
13015;BME280;6573;57.696;11.950;2023-04-27T03:11:45;100852.50;;;9.71;100.00
13015;BME280;6573;57.696;11.950;2023-04-27T03:14:13;100851.63;;;9.75;100.00
13015;BME280;6573;57.696;11.950;2023-04-27T03:16:42;100860.34;;;9.53;100.00
13015;BME280;6573;57.696;11.950;2023-04-27T03:19:10;100855.13;;;9.68;100.00
13015;BME280;6573;57.696;11.950;2023-04-27T03:21:38;100853.41;;;9.88;100.00
13015;BME280;6573;57.696;11.950;2023-04-27T03:24:07;100844.63;;;9.65;100.00
13015;BME280;6573;57.696;11.950;2023-04-27T03:26:36;100843.69;;;9.37;100.00
13015;BME280;6573;57.696;11.950;2023-04-27T03:29:05;100853.34;;;9.52;100.00
13015;BME280;6573;57.696;11.950;2023-04-27T03:31:33;100858.59;;;9.40;100.00
13015;BME280;6573;57.696;11.950;2023-04-27T03:34:01;100851.59;;;9.51;100.00
13015;BME280;6573;57.696;11.950;2023-04-27T03:36:30;100860.34;;;9.47;100.00
13015;BME280;6573;57.696;11.950;2023-04-27T03:38:59;100855.09;;;9.47;100.00
13015;BME280;6573;57.696;11.950;2023-04-27T03:41:27;100860.31;;;9.27;100.00
13015;BME280;6573;57.696;11.950;2023-04-27T03:43:57;100860.34;;;9.47;100.00
13015;BME280;6573;57.696;11.950;2023-04-27T03:46:25;100869.13;;;9.64;100.00
13015;BME280;6573;57.696;11.950;2023-04-27T03:48:53;100867.38;;;9.54;100.00
13015;BME280;6573;57.696;11.950;2023-04-27T03:51:22;100870.91;;;9.62;100.00
13015;BME280;6573;57.696;11.950;2023-04-27T03:53:50;100865.66;;;9.65;100.00
13015;BME280;6573;57.696;11.950;2023-04-27T03:56:18;100865.63;;;9.62;100.00
13015;BME280;6573;57.696;11.950;2023-04-27T03:58:47;100863.81;;;9.34;100.00
13015;BME280;6573;57.696;11.950;2023-04-27T04:01:16;100850.63;;;9.16;100.00
13015;BME280;6573;57.696;11.950;2023-04-27T04:03:44;100867.38;;;9.54;100.00
13015;BME280;6573;57.696;11.950;2023-04-27T04:06:14;100836.72;;;9.56;100.00
13015;BME280;6573;57.696;11.950;2023-04-27T04:08:42;100869.16;;;9.88;100.00
13015;BME280;6573;57.696;11.950;2023-04-27T04:11:10;100867.41;;;9.93;100.00
13015;BME280;6573;57.696;11.950;2023-04-27T04:13:38;100845.50;;;9.64;100.00
13015;BME280;6573;57.696;11.950;2023-04-27T04:16:08;100873.53;;;9.80;100.00
13015;BME280;6573;57.696;11.950;2023-04-27T04:18:38;100873.53;;;9.77;100.00
13015;BME280;6573;57.696;11.950;2023-04-27T04:21:08;100879.63;;;9.47;100.00
13015;BME280;6573;57.696;11.950;2023-04-27T04:23:37;100877.88;;;9.54;100.00
13015;BME280;6573;57.696;11.950;2023-04-27T04:26:06;100890.16;;;9.73;100.00
13015;BME280;6573;57.696;11.950;2023-04-27T04:28:35;100885.78;;;9.76;100.00
13015;BME280;6573;57.696;11.950;2023-04-27T04:31:04;100891.03;;;9.60;100.00
13015;BME280;6573;57.696;11.950;2023-04-27T04:33:35;100891.84;;;9.53;100.00
13015;BME280;6573;57.696;11.950;2023-04-27T04:36:05;100881.28;;;9.29;100.00
13015;BME280;6573;57.696;11.950;2023-04-27T04:38:34;100890.97;;;9.42;100.00
13015;BME280;6573;57.696;11.950;2023-04-27T04:41:02;100891.88;;;9.56;100.00
13015;BME280;6573;57.696;11.950;2023-04-27T04:43:30;100897.16;;;9.65;100.00
13015;BME280;6573;57.696;11.950;2023-04-27T04:45:59;100888.34;;;9.48;100.00
13015;BME280;6573;57.696;11.950;2023-04-27T04:48:27;100893.66;;;9.66;100.00
13015;BME280;6573;57.696;11.950;2023-04-27T04:50:56;100890.13;;;9.58;100.00
13015;BME280;6573;57.696;11.950;2023-04-27T04:53:25;100895.44;;;9.82;100.00
13015;BME280;6573;57.696;11.950;2023-04-27T04:55:54;100894.56;;;10.10;100.00
13015;BME280;6573;57.696;11.950;2023-04-27T04:58:24;100880.56;;;9.80;100.00
13015;BME280;6573;57.696;11.950;2023-04-27T05:00:53;100900.69;;;9.76;100.00
13015;BME280;6573;57.696;11.950;2023-04-27T05:03:21;100900.66;;;9.68;100.00
13015;BME280;6573;57.696;11.950;2023-04-27T05:05:50;100906.81;;;9.80;100.00
13015;BME280;6573;57.696;11.950;2023-04-27T05:08:18;100888.41;;;9.69;100.00
13015;BME280;6573;57.696;11.950;2023-04-27T05:10:49;100904.16;;;9.57;100.00
13015;BME280;6573;57.696;11.950;2023-04-27T05:13:17;100907.69;;;9.65;100.00
13015;BME280;6573;57.696;11.950;2023-04-27T05:15:46;100895.38;;;9.55;100.00
13015;BME280;6573;57.696;11.950;2023-04-27T05:18:14;100874.38;;;9.61;100.00
13015;BME280;6573;57.696;11.950;2023-04-27T05:20:43;100912.94;;;9.80;100.00
13015;BME280;6573;57.696;11.950;2023-04-27T05:23:11;100900.63;;;9.58;100.00
13015;BME280;6573;57.696;11.950;2023-04-27T05:25:39;100909.47;;;9.96;100.00
13015;BME280;6573;57.696;11.950;2023-04-27T05:28:10;100900.69;;;9.85;100.00
13015;BME280;6573;57.696;11.950;2023-04-27T05:30:38;100918.22;;;9.77;100.00
13015;BME280;6573;57.696;11.950;2023-04-27T05:33:06;100914.69;;;9.78;100.00
13015;BME280;6573;57.696;11.950;2023-04-27T05:35:34;100909.44;;;9.78;100.00
13015;BME280;6573;57.696;11.950;2023-04-27T05:38:03;100925.16;;;9.66;100.00
13015;BME280;6573;57.696;11.950;2023-04-27T05:40:31;100905.97;;;10.03;100.00
13015;BME280;6573;57.696;11.950;2023-04-27T05:42:59;100919.94;;;9.81;100.00
13015;BME280;6573;57.696;11.950;2023-04-27T05:45:33;100916.47;;;9.88;100.00
13015;BME280;6573;57.696;11.950;2023-04-27T05:48:05;100916.47;;;9.94;100.00
13015;BME280;6573;57.696;11.950;2023-04-27T05:50:34;100914.78;;;10.14;100.00
13015;BME280;6573;57.696;11.950;2023-04-27T05:53:02;100919.13;;;10.11;100.00
13015;BME280;6573;57.696;11.950;2023-04-27T05:55:31;100901.56;;;9.84;100.00
13015;BME280;6573;57.696;11.950;2023-04-27T05:58:00;100920.00;;;10.11;100.00
13015;BME280;6573;57.696;11.950;2023-04-27T06:00:36;100927.91;;;10.31;100.00
13015;BME280;6573;57.696;11.950;2023-04-27T06:03:04;100927.94;;;10.34;100.00
13015;BME280;6573;57.696;11.950;2023-04-27T06:05:33;100914.75;;;10.11;100.00
13015;BME280;6573;57.696;11.950;2023-04-27T06:08:01;100937.50;;;10.03;100.00
13015;BME280;6573;57.696;11.950;2023-04-27T06:10:29;100930.47;;;9.90;100.00
13015;BME280;6573;57.696;11.950;2023-04-27T06:12:58;100941.00;;;10.05;100.00
13015;BME280;6573;57.696;11.950;2023-04-27T06:15:26;100921.78;;;10.24;100.00
13015;BME280;6573;57.696;11.950;2023-04-27T06:17:56;100932.31;;;10.49;100.00
13015;BME280;6573;57.696;11.950;2023-04-27T06:20:24;100937.53;;;10.09;100.00
13015;BME280;6573;57.696;11.950;2023-04-27T06:22:52;100934.00;;;10.07;100.00
13015;BME280;6573;57.696;11.950;2023-04-27T06:25:21;100940.97;;;9.90;100.00
13015;BME280;6573;57.696;11.950;2023-04-27T06:27:52;100931.38;;;10.06;100.00
13015;BME280;6573;57.696;11.950;2023-04-27T06:30:21;100907.72;;;9.92;100.00
13015;BME280;6573;57.696;11.950;2023-04-27T06:32:50;100945.38;;;9.91;100.00
13015;BME280;6573;57.696;11.950;2023-04-27T06:35:20;100951.47;;;9.81;100.00
13015;BME280;6573;57.696;11.950;2023-04-27T06:37:49;100903.25;;;9.53;100.00
13015;BME280;6573;57.696;11.950;2023-04-27T06:40:18;100935.69;;;9.75;100.00
13015;BME280;6573;57.696;11.950;2023-04-27T06:42:46;100939.31;;;10.31;100.00
13015;BME280;6573;57.696;11.950;2023-04-27T06:45:15;100927.91;;;10.35;100.00
13015;BME280;6573;57.696;11.950;2023-04-27T06:47:43;100941.06;;;10.38;100.00
13015;BME280;6573;57.696;11.950;2023-04-27T06:50:12;100955.03;;;10.10;100.00
13015;BME280;6573;57.696;11.950;2023-04-27T06:52:43;100911.16;;;9.64;100.00
13015;BME280;6573;57.696;11.950;2023-04-27T06:55:11;100912.09;;;9.89;100.00
13015;BME280;6573;57.696;11.950;2023-04-27T06:57:39;100953.34;;;10.46;100.00
13015;BME280;6573;57.696;11.950;2023-04-27T07:00:09;100944.50;;;10.07;100.00
13015;BME280;6573;57.696;11.950;2023-04-27T07:02:41;100950.69;;;10.35;100.00
13015;BME280;6573;57.696;11.950;2023-04-27T07:05:09;100939.28;;;10.34;100.00
13015;BME280;6573;57.696;11.950;2023-04-27T07:07:38;100961.22;;;10.53;100.00
13015;BME280;6573;57.696;11.950;2023-04-27T07:10:08;100953.34;;;10.30;100.00
13015;BME280;6573;57.696;11.950;2023-04-27T07:12:38;100941.94;;;10.39;100.00
13015;BME280;6573;57.696;11.950;2023-04-27T07:15:07;100970.88;;;10.59;100.00
13015;BME280;6573;57.696;11.950;2023-04-27T07:17:36;100949.81;;;10.22;100.00
13015;BME280;6573;57.696;11.950;2023-04-27T07:20:05;100969.09;;;10.39;100.00
13015;BME280;6573;57.696;11.950;2023-04-27T07:22:34;100965.63;;;10.44;100.00
13015;BME280;6573;57.696;11.950;2023-04-27T07:25:03;100949.75;;;10.07;100.00
13015;BME280;6573;57.696;11.950;2023-04-27T07:27:34;100983.13;;;10.32;100.00
13015;BME280;6573;57.696;11.950;2023-04-27T07:30:03;100981.38;;;10.31;100.00
13015;BME280;6573;57.696;11.950;2023-04-27T07:32:32;100975.25;;;10.40;100.00
13015;BME280;6573;57.696;11.950;2023-04-27T07:35:01;100981.41;;;10.44;100.00
13015;BME280;6573;57.696;11.950;2023-04-27T07:37:30;100960.34;;;10.37;100.00
13015;BME280;6573;57.696;11.950;2023-04-27T07:39:58;100984.91;;;10.36;100.00
13015;BME280;6573;57.696;11.950;2023-04-27T07:42:28;100984.88;;;10.43;100.00
13015;BME280;6573;57.696;11.950;2023-04-27T07:44:57;100985.75;;;10.37;100.00
13015;BME280;6573;57.696;11.950;2023-04-27T07:47:26;100995.41;;;10.30;100.00
13015;BME280;6573;57.696;11.950;2023-04-27T07:49:55;101000.69;;;10.36;100.00
13015;BME280;6573;57.696;11.950;2023-04-27T07:52:23;100998.06;;;10.56;100.00
13015;BME280;6573;57.696;11.950;2023-04-27T07:54:52;101000.66;;;10.67;100.00
13015;BME280;6573;57.696;11.950;2023-04-27T07:57:20;101002.44;;;10.59;100.00
13015;BME280;6573;57.696;11.950;2023-04-27T07:59:48;101011.22;;;10.64;100.00
13015;BME280;6573;57.696;11.950;2023-04-27T08:02:18;100978.78;;;10.62;100.00
13015;BME280;6573;57.696;11.950;2023-04-27T08:04:48;100998.91;;;10.63;100.00
13015;BME280;6573;57.696;11.950;2023-04-27T08:07:18;101002.44;;;10.47;100.00
13015;BME280;6573;57.696;11.950;2023-04-27T08:09:49;101012.94;;;11.01;100.00
13015;BME280;6573;57.696;11.950;2023-04-27T08:12:19;101012.75;;;11.61;100.00
13015;BME280;6573;57.696;11.950;2023-04-27T08:14:49;101021.59;;;11.45;100.00
13015;BME280;6573;57.696;11.950;2023-04-27T08:17:19;101007.63;;;11.25;100.00
13015;BME280;6573;57.696;11.950;2023-04-27T08:19:48;101019.94;;;11.08;100.00
13015;BME280;6573;57.696;11.950;2023-04-27T08:22:16;101010.25;;;11.22;100.00
13015;BME280;6573;57.696;11.950;2023-04-27T08:24:45;101018.94;;;11.68;100.00
13015;BME280;6573;57.696;11.950;2023-04-27T08:27:14;100926.94;;;11.06;100.00
13015;BME280;6573;57.696;11.950;2023-04-27T08:29:45;101017.13;;;11.64;100.00
13015;BME280;6573;57.696;11.950;2023-04-27T08:32:14;101026.66;;;12.03;100.00
13015;BME280;6573;57.696;11.950;2023-04-27T08:34:44;101026.53;;;12.21;100.00
13015;BME280;6573;57.696;11.950;2023-04-27T08:37:12;101038.06;;;12.03;100.00
13015;BME280;6573;57.696;11.950;2023-04-27T08:39:40;101032.06;;;11.76;100.00
13015;BME280;6573;57.696;11.950;2023-04-27T08:42:12;101035.72;;;11.16;100.00
13015;BME280;6573;57.696;11.950;2023-04-27T08:44:42;101044.44;;;11.37;100.00
13015;BME280;6573;57.696;11.950;2023-04-27T08:47:10;101023.41;;;11.25;100.00
13015;BME280;6573;57.696;11.950;2023-04-27T08:49:39;101042.66;;;11.57;100.00
13015;BME280;6573;57.696;11.950;2023-04-27T08:52:13;101028.56;;;11.67;100.00
13015;BME280;6573;57.696;11.950;2023-04-27T08:54:42;100997.84;;;11.68;100.00
13015;BME280;6573;57.696;11.950;2023-04-27T08:57:11;101039.09;;;11.61;100.00
13015;BME280;6573;57.696;11.950;2023-04-27T08:59:40;101054.00;;;11.82;100.00
13015;BME280;6573;57.696;11.950;2023-04-27T09:02:17;101054.91;;;11.67;100.00
13015;BME280;6573;57.696;11.950;2023-04-27T09:04:47;101054.94;;;11.71;100.00
13015;BME280;6573;57.696;11.950;2023-04-27T09:07:18;101056.53;;;12.02;100.00
13015;BME280;6573;57.696;11.950;2023-04-27T09:09:46;101053.88;;;12.08;99.75
13015;BME280;6573;57.696;11.950;2023-04-27T09:12:16;101055.63;;;12.09;100.00
13015;BME280;6573;57.696;11.950;2023-04-27T09:14:55;101054.75;;;12.08;99.98
13015;BME280;6573;57.696;11.950;2023-04-27T09:17:24;101067.16;;;11.87;100.00
13015;BME280;6573;57.696;11.950;2023-04-27T09:20:03;101060.22;;;11.55;100.00
13015;BME280;6573;57.696;11.950;2023-04-27T09:22:43;101060.16;;;11.77;100.00
13015;BME280;6573;57.696;11.950;2023-04-27T09:25:22;101068.56;;;12.54;100.00
13015;BME280;6573;57.696;11.950;2023-04-27T09:27:50;101052.81;;;12.36;99.33
13015;BME280;6573;57.696;11.950;2023-04-27T09:30:19;101072.34;;;12.08;99.76
13015;BME280;6573;57.696;11.950;2023-04-27T09:32:50;101067.19;;;11.78;100.00
13015;BME280;6573;57.696;11.950;2023-04-27T09:35:23;101076.00;;;11.67;100.00
13015;BME280;6573;57.696;11.950;2023-04-27T09:37:54;101053.13;;;11.66;100.00
13015;BME280;6573;57.696;11.950;2023-04-27T09:40:25;101071.59;;;11.83;99.96
13015;BME280;6573;57.696;11.950;2023-04-27T09:42:56;101066.13;;;12.13;99.38
13015;BME280;6573;57.696;11.950;2023-04-27T09:45:27;101075.53;;;12.58;98.40
13015;BME280;6573;57.696;11.950;2023-04-27T09:47:57;101049.13;;;12.61;97.34
13015;BME280;6573;57.696;11.950;2023-04-27T09:50:25;101071.75;;;12.92;96.66
13015;BME280;6573;57.696;11.950;2023-04-27T09:52:55;101076.63;;;12.28;96.06
13015;BME280;6573;57.696;11.950;2023-04-27T09:55:29;101091.75;;;11.89;95.66
13015;BME280;6573;57.696;11.950;2023-04-27T09:58:21;101076.84;;;11.83;96.36
13015;BME280;6573;57.696;11.950;2023-04-27T10:01:01;101086.41;;;12.07;96.28
13015;BME280;6573;57.696;11.950;2023-04-27T10:03:41;101069.69;;;12.06;96.08
13015;BME280;6573;57.696;11.950;2023-04-27T10:06:50;101097.00;;;11.98;95.05
13015;BME280;6573;57.696;11.950;2023-04-27T10:09:25;101095.16;;;12.18;95.49
13015;BME280;6573;57.696;11.950;2023-04-27T10:11:54;101084.69;;;12.03;97.67
13015;BME280;6573;57.696;11.950;2023-04-27T10:14:23;101095.22;;;12.00;98.72
13015;BME280;6573;57.696;11.950;2023-04-27T10:16:53;101101.22;;;12.32;98.54
13015;BME280;6573;57.696;11.950;2023-04-27T10:19:23;101094.22;;;12.26;98.05
13015;BME280;6573;57.696;11.950;2023-04-27T10:21:53;101098.75;;;11.97;98.51
13015;BME280;6573;57.696;11.950;2023-04-27T10:24:37;101072.38;;;11.99;97.91
13015;BME280;6573;57.696;11.950;2023-04-27T10:27:07;101112.88;;;11.83;99.11
13015;BME280;6573;57.696;11.950;2023-04-27T10:29:38;101099.66;;;11.93;98.61
13015;BME280;6573;57.696;11.950;2023-04-27T10:32:09;101119.81;;;12.02;97.87
13015;BME280;6573;57.696;11.950;2023-04-27T10:34:38;101116.38;;;11.88;96.40
13015;BME280;6573;57.696;11.950;2023-04-27T10:37:09;101119.88;;;11.90;96.73
13015;BME280;6573;57.696;11.950;2023-04-27T10:39:42;101122.53;;;11.76;98.10
13015;BME280;6573;57.696;11.950;2023-04-27T10:42:25;101117.97;;;12.25;97.39
13015;BME280;6573;57.696;11.950;2023-04-27T10:44:56;101096.19;;;11.64;96.17
13015;BME280;6573;57.696;11.950;2023-04-27T10:47:35;101121.56;;;12.09;96.58
13015;BME280;6573;57.696;11.950;2023-04-27T10:50:05;101111.81;;;12.21;96.46
13015;BME280;6573;57.696;11.950;2023-04-27T10:52:34;101127.66;;;12.21;95.79
13015;BME280;6573;57.696;11.950;2023-04-27T10:55:14;101125.03;;;12.20;94.80
13015;BME280;6573;57.696;11.950;2023-04-27T10:57:47;101117.09;;;12.24;94.31
13015;BME280;6573;57.696;11.950;2023-04-27T11:00:22;101133.66;;;12.49;93.60
13015;BME280;6573;57.696;11.950;2023-04-27T11:02:52;101094.94;;;12.57;92.29
13015;BME280;6573;57.696;11.950;2023-04-27T11:05:22;101131.97;;;12.36;93.13
13015;BME280;6573;57.696;11.950;2023-04-27T11:07:50;101102.22;;;12.07;94.06
13015;BME280;6573;57.696;11.950;2023-04-27T11:10:20;101144.38;;;12.19;92.96
13015;BME280;6573;57.696;11.950;2023-04-27T11:12:49;101133.88;;;12.13;93.60
13015;BME280;6573;57.696;11.950;2023-04-27T11:15:17;101128.41;;;12.43;92.95
13015;BME280;6573;57.696;11.950;2023-04-27T11:17:45;101140.63;;;12.62;92.36
13015;BME280;6573;57.696;11.950;2023-04-27T11:20:23;101143.53;;;12.12;90.22
13015;BME280;6573;57.696;11.950;2023-04-27T11:22:52;101150.53;;;12.19;91.43
13015;BME280;6573;57.696;11.950;2023-04-27T11:25:27;101153.06;;;12.42;91.30
13015;BME280;6573;57.696;11.950;2023-04-27T11:27:56;101147.72;;;12.57;91.18
13015;BME280;6573;57.696;11.950;2023-04-27T11:30:24;101148.50;;;12.68;90.62
13015;BME280;6573;57.696;11.950;2023-04-27T11:32:52;101149.44;;;12.61;91.79
13015;BME280;6573;57.696;11.950;2023-04-27T11:35:31;101152.81;;;12.84;91.81
13015;BME280;6573;57.696;11.950;2023-04-27T11:38:00;101166.19;;;12.57;90.14
13015;BME280;6573;57.696;11.950;2023-04-27T11:40:30;101151.28;;;12.47;88.82
13015;BME280;6573;57.696;11.950;2023-04-27T11:43:01;101149.44;;;12.61;88.91
13015;BME280;6573;57.696;11.950;2023-04-27T11:45:30;101170.63;;;12.43;90.69
13015;BME280;6573;57.696;11.950;2023-04-27T11:47:58;101164.28;;;12.76;90.14
13015;BME280;6573;57.696;11.950;2023-04-27T11:50:26;101172.25;;;12.68;89.69
13015;BME280;6573;57.696;11.950;2023-04-27T11:52:59;101175.72;;;12.82;88.72
13015;BME280;6573;57.696;11.950;2023-04-27T11:55:33;101172.28;;;12.65;87.62
13015;BME280;6573;57.696;11.950;2023-04-27T11:58:02;101167.06;;;12.56;85.94
13015;BME280;6573;57.696;11.950;2023-04-27T12:00:31;101167.91;;;12.64;85.91
13015;BME280;6573;57.696;11.950;2023-04-27T12:02:59;101192.47;;;12.71;88.53
13015;BME280;6573;57.696;11.950;2023-04-27T12:05:28;101186.28;;;12.79;88.32
13015;BME280;6573;57.696;11.950;2023-04-27T12:07:57;101193.34;;;12.77;87.49
13015;BME280;6573;57.696;11.950;2023-04-27T12:10:25;101193.22;;;12.92;85.14
13015;BME280;6573;57.696;11.950;2023-04-27T12:12:55;101196.66;;;13.13;83.71
13015;BME280;6573;57.696;11.950;2023-04-27T12:15:24;101203.78;;;12.92;83.41
13015;BME280;6573;57.696;11.950;2023-04-27T12:17:52;101181.09;;;12.67;82.76
13015;BME280;6573;57.696;11.950;2023-04-27T12:20:21;101200.41;;;12.69;84.36
13015;BME280;6573;57.696;11.950;2023-04-27T12:22:49;101199.34;;;13.00;83.51
13015;BME280;6573;57.696;11.950;2023-04-27T12:25:18;101193.03;;;13.26;83.83
13015;BME280;6573;57.696;11.950;2023-04-27T12:27:47;101204.72;;;12.87;83.35
13015;BME280;6573;57.696;11.950;2023-04-27T12:30:17;101207.28;;;12.97;82.96
13015;BME280;6573;57.696;11.950;2023-04-27T12:32:46;101209.03;;;13.05;84.15
13015;BME280;6573;57.696;11.950;2023-04-27T12:35:14;101225.53;;;13.38;83.80
13015;BME280;6573;57.696;11.950;2023-04-27T12:37:42;101231.91;;;13.02;82.95
13015;BME280;6573;57.696;11.950;2023-04-27T12:40:11;101217.84;;;12.97;82.93
13015;BME280;6573;57.696;11.950;2023-04-27T12:42:40;101217.91;;;12.90;82.11
13015;BME280;6573;57.696;11.950;2023-04-27T12:45:09;101220.56;;;12.87;82.53
13015;BME280;6573;57.696;11.950;2023-04-27T12:47:38;101223.25;;;12.76;83.79
13015;BME280;6573;57.696;11.950;2023-04-27T12:50:29;101233.59;;;13.16;84.23
13015;BME280;6573;57.696;11.950;2023-04-27T12:52:58;101224.47;;;13.59;84.12
13015;BME280;6573;57.696;11.950;2023-04-27T12:55:26;101226.94;;;13.77;82.69
13015;BME280;6573;57.696;11.950;2023-04-27T12:58:00;101200.56;;;13.71;81.75
13015;BME280;6573;57.696;11.950;2023-04-27T13:00:30;101219.13;;;13.65;80.56